Time;durP1;ratioP1;P1;durP2;ratioP2;P2;SDS_P1;SDS_P2;PMS_P1;PMS_P2;Temp;Humidity;BMP_temperature;BMP_pressure;BME280_temperature;BME280_humidity;BME280_pressure;Samples;Min_cycle;Max_cycle;Signal;HPM_P1;HPM_P2
2023/04/28 00:00:31;;;;;;;7.78;4.00;;;;;;;;;;4971104;28;20034;-78
2023/04/28 00:02:57;;;;;;;6.88;4.20;;;;;;;;;;4969311;28;20030;-79
2023/04/28 00:05:23;;;;;;;7.88;4.43;;;;;;;;;;4972659;28;20432;-79
2023/04/28 00:07:50;;;;;;;7.85;4.28;;;;;;;;;;4956120;28;20058;-79
2023/04/28 00:10:16;;;;;;;8.32;4.35;;;;;;;;;;4974186;28;20030;-79
2023/04/28 00:12:43;;;;;;;6.05;3.83;;;;;;;;;;4974800;28;20033;-78
2023/04/28 00:15:12;;;;;;;9.93;4.82;;;;;;;;;;4974981;28;20121;-80
2023/04/28 00:17:38;;;;;;;8.25;4.68;;;;;;;;;;4976140;28;20051;-79
2023/04/28 00:20:05;;;;;;;12.05;5.40;;;;;;;;;;4958446;28;20155;-79
2023/04/28 00:22:30;;;;;;;12.23;4.65;;;;;;;;;;4990885;28;20085;-78
2023/04/28 00:24:57;;;;;;;8.95;4.45;;;;;;;;;;4974629;28;21067;-79
2023/04/28 00:27:22;;;;;;;12.05;5.40;;;;;;;;;;4958517;28;20054;-79
2023/04/28 00:29:50;;;;;;;8.27;4.30;;;;;;;;;;4975637;28;20097;-78
2023/04/28 00:32:15;;;;;;;8.38;4.95;;;;;;;;;;4990598;28;20429;-78
2023/04/28 00:34:41;;;;;;;8.65;3.70;;;;;;;;;;4990658;28;20505;-77
2023/04/28 00:37:07;;;;;;;7.57;3.90;;;;;;;;;;4973818;28;20031;-79
2023/04/28 00:39:34;;;;;;;8.90;4.10;;;;;;;;;;4974162;28;20038;-80
2023/04/28 00:42:03;;;;;;;5.38;3.88;;;;;;;;;;4974155;28;20033;-79
2023/04/28 00:44:29;;;;;;;5.72;3.67;;;;;;;;;;4974569;28;20421;-79
2023/04/28 00:46:56;;;;;;;8.73;3.72;;;;;;;;;;4975519;28;20110;-78
2023/04/28 00:49:22;;;;;;;6.00;3.53;;;;;;;;;;4990159;28;20030;-79
2023/04/28 00:51:47;;;;;;;7.32;3.83;;;;;;;;;;4990290;28;20011;-79
2023/04/28 00:54:13;;;;;;;7.10;4.05;;;;;;;;;;4976204;28;20192;-77
2023/04/28 00:56:39;;;;;;;8.35;3.97;;;;;;;;;;4975197;28;20092;-78
2023/04/28 00:59:05;;;;;;;8.48;4.15;;;;;;;;;;4975167;28;20031;-78
2023/04/28 01:01:33;;;;;;;6.10;3.67;;;;;;;;;;4974428;28;20027;-78
2023/04/28 01:03:59;;;;;;;4.85;3.50;;;;;;;;;;4974161;28;20042;-78
2023/04/28 01:06:28;;;;;;;5.85;3.65;;;;;;;;;;4958677;28;20493;-79
2023/04/28 01:08:56;;;;;;;5.53;3.80;;;;;;;;;;4975712;28;20037;-79
2023/04/28 01:11:23;;;;;;;6.60;3.63;;;;;;;;;;4974799;28;20045;-79
2023/04/28 01:14:09;;;;;;;6.38;3.80;;;;;;;;;;4975005;28;20547;-78
2023/04/28 01:16:40;;;;;;;8.65;4.10;;;;;;;;;;4973726;28;20038;-80
2023/04/28 01:19:19;;;;;;;6.82;4.05;;;;;;;;;;4972598;28;20038;-79
2023/04/28 01:21:45;;;;;;;7.70;3.95;;;;;;;;;;4975425;28;20035;-78
2023/04/28 01:24:19;;;;;;;10.98;3.83;;;;;;;;;;4990267;28;20041;-77
2023/04/28 01:26:45;;;;;;;7.15;3.38;;;;;;;;;;4973459;28;20046;-77
2023/04/28 01:29:11;;;;;;;5.97;3.83;;;;;;;;;;4973482;28;20027;-79
2023/04/28 01:31:37;;;;;;;7.15;3.35;;;;;;;;;;4989929;28;20039;-79
2023/04/28 01:34:03;;;;;;;4.50;3.00;;;;;;;;;;4974956;28;20029;-77
2023/04/28 01:36:29;;;;;;;4.53;3.00;;;;;;;;;;4991069;28;20085;-79
2023/04/28 01:38:55;;;;;;;4.50;2.75;;;;;;;;;;4961134;28;20057;-79
2023/04/28 01:41:21;;;;;;;6.28;3.38;;;;;;;;;;4975980;28;20077;-78
2023/04/28 01:43:51;;;;;;;5.97;3.33;;;;;;;;;;4975005;28;20465;-77
2023/04/28 01:46:17;;;;;;;6.57;3.13;;;;;;;;;;4974667;28;20497;-78
2023/04/28 01:48:43;;;;;;;5.93;3.13;;;;;;;;;;4974186;28;20045;-77
2023/04/28 01:51:12;;;;;;;6.55;3.05;;;;;;;;;;4989156;28;20030;-78
2023/04/28 01:53:38;;;;;;;6.03;2.90;;;;;;;;;;4974384;28;20053;-79
2023/04/28 01:56:06;;;;;;;8.43;2.95;;;;;;;;;;4972977;28;20042;-78
2023/04/28 01:58:34;;;;;;;4.47;2.80;;;;;;;;;;4972893;28;20026;-78
2023/04/28 02:01:00;;;;;;;5.20;2.90;;;;;;;;;;4974292;28;20549;-79
2023/04/28 02:03:27;;;;;;;6.45;2.42;;;;;;;;;;4973150;28;20113;-78
2023/04/28 02:05:53;;;;;;;6.75;3.08;;;;;;;;;;4989300;28;20063;-78
2023/04/28 02:08:19;;;;;;;7.22;3.33;;;;;;;;;;4988913;28;20061;-77
2023/04/28 02:10:45;;;;;;;6.03;2.63;;;;;;;;;;4973913;28;20039;-77
2023/04/28 02:13:11;;;;;;;5.80;2.53;;;;;;;;;;4988886;28;20477;-77
2023/04/28 02:15:41;;;;;;;4.15;2.60;;;;;;;;;;4989169;28;20092;-79
2023/04/28 02:18:07;;;;;;;6.25;2.90;;;;;;;;;;4972688;28;20035;-78
2023/04/28 02:20:33;;;;;;;4.85;2.35;;;;;;;;;;4988790;28;20019;-79
2023/04/28 02:22:59;;;;;;;5.88;3.00;;;;;;;;;;4973751;28;20405;-78
2023/04/28 02:25:26;;;;;;;6.00;2.63;;;;;;;;;;4973582;28;20084;-77
2023/04/28 02:27:52;;;;;;;5.80;2.70;;;;;;;;;;4965272;28;20046;-78
2023/04/28 02:30:18;;;;;;;4.72;2.45;;;;;;;;;;4972969;28;20481;-77
2023/04/28 02:32:43;;;;;;;10.07;3.20;;;;;;;;;;4988535;28;20035;-77
2023/04/28 02:35:09;;;;;;;7.30;3.10;;;;;;;;;;4973737;28;20042;-78
2023/04/28 02:37:35;;;;;;;7.53;2.95;;;;;;;;;;4988580;28;20552;-77
2023/04/28 02:40:01;;;;;;;4.15;2.42;;;;;;;;;;4988202;28;20493;-78
2023/04/28 02:42:27;;;;;;;7.07;2.55;;;;;;;;;;4988010;28;20493;-76
2023/04/28 02:44:54;;;;;;;7.47;2.50;;;;;;;;;;4988083;28;20046;-79
2023/04/28 02:47:20;;;;;;;8.65;2.75;;;;;;;;;;4988423;28;20559;-77
2023/04/28 02:49:45;;;;;;;8.98;2.88;;;;;;;;;;4955966;28;20057;-78
2023/04/28 02:52:12;;;;;;;8.80;2.70;;;;;;;;;;4988442;28;20054;-78
2023/04/28 02:54:38;;;;;;;4.32;2.70;;;;;;;;;;4973113;28;20058;-79
2023/04/28 02:57:05;;;;;;;6.38;2.60;;;;;;;;;;4972049;28;20039;-79
2023/04/28 02:59:34;;;;;;;7.20;3.40;;;;;;;;;;4972379;28;20031;-80
2023/04/28 03:02:00;;;;;;;6.00;2.53;;;;;;;;;;4988195;28;20039;-79
2023/04/28 03:04:28;;;;;;;6.20;3.25;;;;;;;;;;4977177;28;20554;-79
2023/04/28 03:06:55;;;;;;;5.28;3.22;;;;;;;;;;4988899;28;20110;-79
2023/04/28 03:09:21;;;;;;;5.88;3.08;;;;;;;;;;4957990;28;20114;-79
2023/04/28 03:11:49;;;;;;;4.10;2.78;;;;;;;;;;4992624;28;20113;-79
2023/04/28 03:14:15;;;;;;;7.07;2.92;;;;;;;;;;4991321;28;20030;-80
2023/04/28 03:16:42;;;;;;;9.23;3.28;;;;;;;;;;4979246;28;20044;-80
2023/04/28 03:19:12;;;;;;;5.82;3.60;;;;;;;;;;4976486;28;20097;-79
2023/04/28 03:21:38;;;;;;;5.15;2.90;;;;;;;;;;4970397;28;20562;-79
2023/04/28 03:24:04;;;;;;;4.57;2.90;;;;;;;;;;4973416;28;20117;-79
2023/04/28 03:26:31;;;;;;;4.90;3.00;;;;;;;;;;4991260;28;20040;-79
2023/04/28 03:28:58;;;;;;;5.85;3.00;;;;;;;;;;5007506;28;20484;-79
2023/04/28 03:31:25;;;;;;;6.78;2.90;;;;;;;;;;4996684;28;20043;-79
2023/04/28 03:33:52;;;;;;;10.50;3.22;;;;;;;;;;4946968;28;20084;-80
2023/04/28 03:36:18;;;;;;;8.07;3.33;;;;;;;;;;4993289;28;20038;-79
2023/04/28 03:38:44;;;;;;;5.18;3.22;;;;;;;;;;4971443;28;20030;-79
2023/04/28 03:41:10;;;;;;;6.57;3.30;;;;;;;;;;4971562;28;20038;-80
2023/04/28 03:44:07;;;;;;;6.53;3.25;;;;;;;;;;4976288;28;20113;-78
2023/04/28 03:46:41;;;;;;;5.68;3.20;;;;;;;;;;4956147;28;20035;-80
2023/04/28 03:49:07;;;;;;;5.25;2.80;;;;;;;;;;4969155;28;20515;-78
2023/04/28 03:51:33;;;;;;;6.32;3.38;;;;;;;;;;4991184;28;20029;-79
2023/04/28 03:53:59;;;;;;;6.00;2.92;;;;;;;;;;4980476;28;20106;-79
2023/04/28 03:56:26;;;;;;;6.45;3.17;;;;;;;;;;4983442;28;20105;-79
2023/04/28 03:58:53;;;;;;;8.13;2.85;;;;;;;;;;4981099;28;20382;-79
2023/04/28 04:01:19;;;;;;;5.88;2.70;;;;;;;;;;4963948;28;20038;-79
2023/04/28 04:03:47;;;;;;;6.15;3.20;;;;;;;;;;4975706;28;20077;-80
2023/04/28 04:06:14;;;;;;;7.07;2.58;;;;;;;;;;4980580;28;20038;-80
2023/04/28 04:08:40;;;;;;;6.47;3.33;;;;;;;;;;4983779;28;20077;-78
2023/04/28 04:11:06;;;;;;;6.00;2.60;;;;;;;;;;4999795;28;20030;-78
2023/04/28 04:13:34;;;;;;;6.82;3.17;;;;;;;;;;4980296;28;20030;-80
2023/04/28 04:16:04;;;;;;;3.40;2.35;;;;;;;;;;4973524;28;20018;-79
2023/04/28 04:18:30;;;;;;;6.70;3.13;;;;;;;;;;4975014;28;20067;-79
2023/04/28 04:21:14;;;;;;;5.55;2.75;;;;;;;;;;4990729;28;20186;-79
2023/04/28 04:23:40;;;;;;;6.40;2.63;;;;;;;;;;4990702;28;20121;-78
2023/04/28 04:26:06;;;;;;;5.15;2.72;;;;;;;;;;4990463;28;20944;-80
2023/04/28 04:28:32;;;;;;;5.05;2.63;;;;;;;;;;4990123;28;20177;-77
2023/04/28 04:31:01;;;;;;;8.25;3.60;;;;;;;;;;4990358;28;20504;-79
2023/04/28 04:33:29;;;;;;;6.07;2.58;;;;;;;;;;4974448;28;20030;-81
2023/04/28 04:35:56;;;;;;;6.05;2.97;;;;;;;;;;4974027;28;20392;-79
2023/04/28 04:38:23;;;;;;;6.70;2.90;;;;;;;;;;4958354;28;20034;-81
2023/04/28 04:40:52;;;;;;;5.38;2.55;;;;;;;;;;4974206;28;20118;-79
2023/04/28 04:43:20;;;;;;;10.55;2.65;;;;;;;;;;4957298;28;20060;-78
2023/04/28 04:45:50;;;;;;;8.40;2.45;;;;;;;;;;4954791;28;20027;-79
2023/04/28 04:48:16;;;;;;;5.53;2.55;;;;;;;;;;4955687;28;20507;-79
2023/04/28 04:50:43;;;;;;;10.38;2.83;;;;;;;;;;4989154;28;20504;-79
2023/04/28 04:53:09;;;;;;;11.07;3.30;;;;;;;;;;4972848;28;20039;-79
2023/04/28 04:55:36;;;;;;;7.60;2.80;;;;;;;;;;4957072;28;20022;-78
2023/04/28 04:58:05;;;;;;;4.53;2.40;;;;;;;;;;4973599;28;20450;-77
2023/04/28 05:00:49;;;;;;;5.10;2.85;;;;;;;;;;4946736;28;20093;-79
2023/04/28 05:03:16;;;;;;;10.30;2.90;;;;;;;;;;4972005;28;20405;-79
2023/04/28 05:05:47;;;;;;;13.73;2.63;;;;;;;;;;4954467;28;20086;-79
2023/04/28 05:08:28;;;;;;;5.32;2.53;;;;;;;;;;4988570;28;20047;-79
2023/04/28 05:10:56;;;;;;;8.70;2.80;;;;;;;;;;4973477;28;20404;-79
2023/04/28 05:13:23;;;;;;;5.82;2.72;;;;;;;;;;4972745;28;20038;-79
2023/04/28 05:15:56;;;;;;;4.60;2.67;;;;;;;;;;4973227;28;20489;-80
2023/04/28 05:18:34;;;;;;;10.45;3.83;;;;;;;;;;4974957;28;20038;-78
2023/04/28 05:21:01;;;;;;;10.23;2.97;;;;;;;;;;4989162;28;20026;-78
2023/04/28 05:23:28;;;;;;;4.88;2.70;;;;;;;;;;4973149;28;20031;-78
2023/04/28 05:25:56;;;;;;;7.18;2.80;;;;;;;;;;4974378;28;20045;-77
2023/04/28 05:28:22;;;;;;;5.10;2.58;;;;;;;;;;4972895;28;20022;-78
2023/04/28 05:30:53;;;;;;;6.20;2.55;;;;;;;;;;4988837;28;20106;-78
2023/04/28 05:33:19;;;;;;;6.18;3.20;;;;;;;;;;4971495;28;20043;-78
2023/04/28 05:35:45;;;;;;;6.25;2.70;;;;;;;;;;4972411;28;20090;-77
2023/04/28 05:38:14;;;;;;;5.10;3.00;;;;;;;;;;4988455;28;20121;-78
2023/04/28 05:40:42;;;;;;;5.60;2.22;;;;;;;;;;4972869;28;20034;-79
2023/04/28 05:43:07;;;;;;;6.78;2.67;;;;;;;;;;4940000;28;20030;-79
2023/04/28 05:45:35;;;;;;;7.90;3.45;;;;;;;;;;4972905;28;20055;-79
2023/04/28 05:48:04;;;;;;;7.60;2.70;;;;;;;;;;4972980;28;20441;-79
2023/04/28 05:50:31;;;;;;;6.40;3.00;;;;;;;;;;4956543;28;20500;-79
2023/04/28 05:53:00;;;;;;;6.55;3.20;;;;;;;;;;4989261;28;20348;-78
2023/04/28 05:55:26;;;;;;;6.05;3.30;;;;;;;;;;4972457;28;20102;-79
2023/04/28 05:57:53;;;;;;;8.18;2.90;;;;;;;;;;4990184;28;20115;-78
2023/04/28 06:00:20;;;;;;;10.40;3.53;;;;;;;;;;4956425;28;20026;-78
2023/04/28 06:02:47;;;;;;;7.57;3.45;;;;;;;;;;4989034;28;20504;-79
2023/04/28 06:05:15;;;;;;;8.60;4.53;;;;;;;;;;4972822;28;20421;-77
2023/04/28 06:07:42;;;;;;;10.20;4.10;;;;;;;;;;4956752;28;20456;-81
2023/04/28 06:10:14;;;;;;;16.00;4.22;;;;;;;;;;4972793;28;20125;-80
2023/04/28 06:12:44;;;;;;;11.55;3.30;;;;;;;;;;4972993;28;20031;-79
2023/04/28 06:15:12;;;;;;;8.45;3.20;;;;;;;;;;4973441;28;20035;-78
2023/04/28 06:17:38;;;;;;;10.63;3.03;;;;;;;;;;4974172;28;20033;-81
2023/04/28 06:20:06;;;;;;;26.20;5.50;;;;;;;;;;4978247;28;20075;-78
2023/04/28 06:22:32;;;;;;;20.10;5.07;;;;;;;;;;4976120;28;20094;-82
2023/04/28 06:24:58;;;;;;;31.23;4.70;;;;;;;;;;4972435;28;20035;-78
2023/04/28 06:27:31;;;;;;;12.73;3.08;;;;;;;;;;4989129;28;20026;-79
2023/04/28 06:29:58;;;;;;;15.63;3.50;;;;;;;;;;4973793;28;20489;-81
2023/04/28 06:32:25;;;;;;;21.35;4.28;;;;;;;;;;4972768;28;20030;-82
2023/04/28 06:34:51;;;;;;;22.00;3.83;;;;;;;;;;4972281;28;20262;-79
2023/04/28 06:37:18;;;;;;;12.10;3.80;;;;;;;;;;4956530;28;20033;-80
2023/04/28 06:39:44;;;;;;;5.47;2.78;;;;;;;;;;4989066;28;20038;-80
2023/04/28 06:42:11;;;;;;;20.63;4.47;;;;;;;;;;4973044;28;20093;-83
2023/04/28 06:44:41;;;;;;;8.38;2.65;;;;;;;;;;4988665;28;20034;-82
2023/04/28 06:47:10;;;;;;;9.27;2.80;;;;;;;;;;4974297;28;20031;-78
2023/04/28 06:49:39;;;;;;;7.32;3.42;;;;;;;;;;4973069;28;20141;-81
2023/04/28 06:52:06;;;;;;;3.85;2.40;;;;;;;;;;4973020;28;20133;-85
2023/04/28 06:54:33;;;;;;;6.18;2.45;;;;;;;;;;4956698;28;20059;-83
2023/04/28 06:57:03;;;;;;;5.93;2.50;;;;;;;;;;4972814;28;20512;-83
2023/04/28 06:59:30;;;;;;;7.47;2.75;;;;;;;;;;4974070;28;20031;-84
2023/04/28 07:01:57;;;;;;;9.02;2.97;;;;;;;;;;4974828;28;20397;-85
2023/04/28 07:04:24;;;;;;;5.68;2.80;;;;;;;;;;4973926;28;20030;-85
2023/04/28 07:06:51;;;;;;;4.00;2.30;;;;;;;;;;4989510;28;20106;-80
2023/04/28 07:09:19;;;;;;;6.00;2.88;;;;;;;;;;4975663;28;20044;-79
2023/04/28 07:11:45;;;;;;;6.47;2.47;;;;;;;;;;4974943;28;20404;-82
2023/04/28 07:14:10;;;;;;;4.70;2.58;;;;;;;;;;4973758;28;20522;-83
2023/04/28 07:16:37;;;;;;;7.95;3.30;;;;;;;;;;4987376;28;20050;-83
2023/04/28 07:19:04;;;;;;;4.63;1.92;;;;;;;;;;4974505;28;20497;-84
2023/04/28 07:21:30;;;;;;;4.40;1.90;;;;;;;;;;4977911;28;20042;-81
2023/04/28 07:23:57;;;;;;;2.50;1.80;;;;;;;;;;4994332;28;20022;-81
2023/04/28 07:26:24;;;;;;;7.63;2.30;;;;;;;;;;4993177;28;20078;-84
2023/04/28 07:28:50;;;;;;;7.43;2.40;;;;;;;;;;4993714;28;20042;-84
2023/04/28 07:31:18;;;;;;;5.55;2.08;;;;;;;;;;4993282;28;20026;-83
2023/04/28 07:33:43;;;;;;;5.72;2.22;;;;;;;;;;4990698;28;20031;-83
2023/04/28 07:36:09;;;;;;;4.28;2.05;;;;;;;;;;4997229;28;20054;-80
2023/04/28 07:38:37;;;;;;;5.10;1.88;;;;;;;;;;4976153;28;20206;-81
2023/04/28 07:41:04;;;;;;;7.55;2.40;;;;;;;;;;4978411;28;20027;-80
2023/04/28 07:43:31;;;;;;;10.15;2.40;;;;;;;;;;4971899;28;20047;-83
2023/04/28 07:45:58;;;;;;;7.85;2.65;;;;;;;;;;4975085;28;20029;-82
2023/04/28 07:48:24;;;;;;;5.32;2.22;;;;;;;;;;4974329;28;20042;-79
2023/04/28 07:50:50;;;;;;;4.13;2.00;;;;;;;;;;4974141;28;20023;-81
2023/04/28 07:53:19;;;;;;;4.72;2.30;;;;;;;;;;4972588;28;20493;-82
2023/04/28 07:55:45;;;;;;;6.75;2.70;;;;;;;;;;4972217;28;20113;-81
2023/04/28 07:58:12;;;;;;;6.57;2.25;;;;;;;;;;4973220;28;20105;-80
2023/04/28 08:00:40;;;;;;;3.88;2.10;;;;;;;;;;4971459;28;20465;-83
2023/04/28 08:03:09;;;;;;;5.25;2.60;;;;;;;;;;4971053;28;20059;-81
2023/04/28 08:05:35;;;;;;;11.95;3.38;;;;;;;;;;4972945;28;20034;-83
2023/04/28 08:08:07;;;;;;;7.57;2.90;;;;;;;;;;4976401;28;20039;-83
2023/04/28 08:10:34;;;;;;;5.88;2.30;;;;;;;;;;4978747;28;20083;-79
2023/04/28 08:13:00;;;;;;;5.57;2.03;;;;;;;;;;4979587;28;20035;-78
2023/04/28 08:15:26;;;;;;;6.40;2.50;;;;;;;;;;4979990;28;20511;-79
2023/04/28 08:17:53;;;;;;;3.92;2.13;;;;;;;;;;4978855;28;20023;-83
2023/04/28 08:20:20;;;;;;;4.70;2.08;;;;;;;;;;4945425;28;20157;-83
2023/04/28 08:22:47;;;;;;;8.38;1.92;;;;;;;;;;4975566;28;20026;-83
2023/04/28 08:25:13;;;;;;;28.60;5.90;;;;;;;;;;4979298;28;20034;-81
2023/04/28 08:27:41;;;;;;;11.02;3.40;;;;;;;;;;4972189;28;20031;-82
2023/04/28 08:30:08;;;;;;;6.00;2.40;;;;;;;;;;4978296;28;20039;-83
2023/04/28 08:32:36;;;;;;;9.88;2.58;;;;;;;;;;4983193;28;20042;-82
2023/04/28 08:35:02;;;;;;;4.75;2.00;;;;;;;;;;4981794;28;20094;-81
2023/04/28 08:37:28;;;;;;;7.65;2.45;;;;;;;;;;4977739;28;20045;-81
2023/04/28 08:40:08;;;;;;;4.95;2.10;;;;;;;;;;4979549;28;20479;-81
2023/04/28 08:42:36;;;;;;;4.57;2.20;;;;;;;;;;4980340;28;20038;-81
2023/04/28 08:45:04;;;;;;;6.60;2.45;;;;;;;;;;4979224;28;20062;-81
2023/04/28 08:47:37;;;;;;;3.33;2.35;;;;;;;;;;4962026;28;20058;-81
2023/04/28 08:50:11;;;;;;;4.63;2.28;;;;;;;;;;4979044;28;20042;-83
2023/04/28 08:52:38;;;;;;;8.27;2.20;;;;;;;;;;4993926;28;20101;-84
2023/04/28 08:55:15;;;;;;;5.07;2.10;;;;;;;;;;4980132;28;20038;-84
2023/04/28 08:57:45;;;;;;;5.50;2.63;;;;;;;;;;4982160;28;20492;-83
2023/04/28 09:00:11;;;;;;;5.97;2.40;;;;;;;;;;4977065;28;20037;-80
2023/04/28 09:02:40;;;;;;;6.25;1.98;;;;;;;;;;4974492;28;20070;-81
2023/04/28 09:05:13;;;;;;;4.05;2.45;;;;;;;;;;4976827;28;20026;-82
2023/04/28 09:07:40;;;;;;;5.70;2.00;;;;;;;;;;4978028;28;20034;-81
2023/04/28 09:10:25;;;;;;;7.35;2.40;;;;;;;;;;4975674;28;20114;-83
2023/04/28 09:12:53;;;;;;;5.72;2.58;;;;;;;;;;4978256;28;20074;-82
2023/04/28 09:15:35;;;;;;;8.18;2.30;;;;;;;;;;4978982;28;20038;-81
2023/04/28 09:18:05;;;;;;;9.88;2.03;;;;;;;;;;4978033;28;20046;-83
2023/04/28 09:20:33;;;;;;;8.35;2.45;;;;;;;;;;4979551;28;20047;-84
2023/04/28 09:23:20;;;;;;;5.90;1.75;;;;;;;;;;4975165;28;20050;-80
2023/04/28 09:26:03;;;;;;;6.50;2.00;;;;;;;;;;4975520;28;20070;-83
2023/04/28 09:28:30;;;;;;;4.55;2.72;;;;;;;;;;4972708;28;20047;-81
2023/04/28 09:30:56;;;;;;;6.22;1.90;;;;;;;;;;4974187;28;20038;-81
2023/04/28 09:33:23;;;;;;;7.88;1.98;;;;;;;;;;4972778;28;20062;-79
2023/04/28 09:35:49;;;;;;;5.68;2.20;;;;;;;;;;4973382;28;20444;-81
2023/04/28 09:38:17;;;;;;;3.10;1.77;;;;;;;;;;4972424;28;20408;-82
2023/04/28 09:40:57;;;;;;;4.85;2.00;;;;;;;;;;4974271;28;20479;-82
2023/04/28 09:43:30;;;;;;;4.38;2.20;;;;;;;;;;4972910;28;20062;-85
2023/04/28 09:46:01;;;;;;;4.95;2.40;;;;;;;;;;4974681;28;20089;-78
2023/04/28 09:48:35;;;;;;;8.82;3.35;;;;;;;;;;4973874;28;20039;-81
2023/04/28 09:51:03;;;;;;;9.27;2.38;;;;;;;;;;4970695;28;20449;-81
2023/04/28 09:53:31;;;;;;;5.30;2.20;;;;;;;;;;4974510;28;20033;-78
2023/04/28 09:56:00;;;;;;;5.80;2.15;;;;;;;;;;4974667;28;20065;-79
2023/04/28 09:58:27;;;;;;;6.00;2.42;;;;;;;;;;4973376;28;20031;-77
2023/04/28 10:00:57;;;;;;;4.75;2.10;;;;;;;;;;4977034;28;20125;-78
2023/04/28 10:03:25;;;;;;;3.97;1.90;;;;;;;;;;4972731;28;20027;-79
2023/04/28 10:05:57;;;;;;;3.67;1.83;;;;;;;;;;4973199;28;20173;-79
2023/04/28 10:08:24;;;;;;;8.63;2.40;;;;;;;;;;4973308;28;20105;-78
2023/04/28 10:10:54;;;;;;;7.30;3.88;;;;;;;;;;4972112;28;20035;-77
2023/04/28 10:13:23;;;;;;;5.88;2.30;;;;;;;;;;4974449;28;20042;-77
2023/04/28 10:15:53;;;;;;;9.27;4.18;;;;;;;;;;4974278;28;20061;-80
2023/04/28 10:18:22;;;;;;;3.42;2.20;;;;;;;;;;4972201;28;20485;-84
2023/04/28 10:20:57;;;;;;;6.15;3.17;;;;;;;;;;4976252;28;20440;-83
2023/04/28 10:23:58;;;;;;;8.20;2.88;;;;;;;;;;4975613;28;20031;-81
2023/04/28 10:27:00;;;;;;;24.00;14.02;;;;;;;;;;4974437;28;20128;-82
2023/04/28 10:29:34;;;;;;;12.60;7.65;;;;;;;;;;4974186;28;20043;-81
2023/04/28 10:32:21;;;;;;;;;;;;;;;;;;4973461;28;20401;-81
2023/04/28 10:34:47;;;;;;;9.48;3.15;;;;;;;;;;4974062;28;19914;-80
2023/04/28 10:37:18;;;;;;;8.77;2.60;;;;;;;;;;4973311;28;20081;-81
2023/04/28 10:40:28;;;;;;;5.97;1.85;;;;;;;;;;4973257;28;20066;-82
2023/04/28 10:42:55;;;;;;;5.68;2.70;;;;;;;;;;4941785;28;20054;-81
2023/04/28 10:45:55;;;;;;;2.65;1.80;;;;;;;;;;4972989;28;20027;-82
2023/04/28 10:48:22;;;;;;;4.82;2.10;;;;;;;;;;4974828;28;20384;-81
2023/04/28 10:51:08;;;;;;;6.03;2.03;;;;;;;;;;4973143;28;20023;-80
2023/04/28 10:53:59;;;;;;;7.00;2.35;;;;;;;;;;4973421;28;20049;-82
2023/04/28 10:56:26;;;;;;;6.88;2.50;;;;;;;;;;4969865;28;20050;-81
2023/04/28 10:58:56;;;;;;;5.70;2.33;;;;;;;;;;4975473;28;20057;-82
2023/04/28 11:01:33;;;;;;;6.75;3.08;;;;;;;;;;4974356;28;20031;-83
2023/04/28 11:04:12;;;;;;;4.40;2.50;;;;;;;;;;4973722;28;20047;-82
2023/04/28 11:06:43;;;;;;;7.05;2.10;;;;;;;;;;4957669;28;20064;-82
2023/04/28 11:09:22;;;;;;;8.15;2.30;;;;;;;;;;4974188;28;20105;-81
2023/04/28 11:12:11;;;;;;;5.00;2.38;;;;;;;;;;4973093;28;20030;-81
2023/04/28 11:14:39;;;;;;;5.38;2.22;;;;;;;;;;4973937;28;20051;-81
2023/04/28 11:17:07;;;;;;;4.38;2.00;;;;;;;;;;4974546;28;20190;-81
2023/04/28 11:19:39;;;;;;;5.70;2.40;;;;;;;;;;4975503;28;20078;-81
2023/04/28 11:22:19;;;;;;;4.13;2.08;;;;;;;;;;4976198;28;20031;-82
2023/04/28 11:25:00;;;;;;;7.65;2.65;;;;;;;;;;4970802;28;20038;-78
2023/04/28 11:27:31;;;;;;;8.80;2.72;;;;;;;;;;4984096;28;20461;-78
2023/04/28 11:29:57;;;;;;;4.07;2.17;;;;;;;;;;4971898;28;20441;-78
2023/04/28 11:32:31;;;;;;;4.90;2.20;;;;;;;;;;4972501;28;20022;-78
2023/04/28 11:34:58;;;;;;;4.25;2.38;;;;;;;;;;4971821;28;20133;-77
2023/04/28 11:37:24;;;;;;;3.50;2.25;;;;;;;;;;4973001;28;20110;-77
2023/04/28 11:39:51;;;;;;;6.40;2.85;;;;;;;;;;4973641;28;20412;-76
2023/04/28 11:42:19;;;;;;;4.40;2.25;;;;;;;;;;4971376;28;20473;-84
2023/04/28 11:44:52;;;;;;;11.65;3.10;;;;;;;;;;4957929;28;20050;-83
2023/04/28 11:47:34;;;;;;;5.05;2.30;;;;;;;;;;4975800;28;20489;-81
2023/04/28 11:50:00;;;;;;;5.40;2.38;;;;;;;;;;4974237;28;20042;-83
2023/04/28 11:52:28;;;;;;;6.93;2.38;;;;;;;;;;4979010;28;20019;-84
2023/04/28 11:54:56;;;;;;;4.78;2.17;;;;;;;;;;4992439;28;20146;-82
2023/04/28 11:57:25;;;;;;;5.88;2.03;;;;;;;;;;4976331;28;20046;-82
2023/04/28 11:59:52;;;;;;;6.70;2.03;;;;;;;;;;4976274;28;20027;-82
2023/04/28 12:02:28;;;;;;;5.72;2.22;;;;;;;;;;4972068;28;20397;-83
2023/04/28 12:04:54;;;;;;;4.75;1.70;;;;;;;;;;4975015;28;20035;-83
2023/04/28 12:07:20;;;;;;;3.78;1.92;;;;;;;;;;4975520;28;20027;-84
2023/04/28 12:10:17;;;;;;;4.93;2.13;;;;;;;;;;4977688;28;20042;-84
2023/04/28 12:12:46;;;;;;;5.47;2.15;;;;;;;;;;4992996;28;20058;-77
2023/04/28 12:15:11;;;;;;;5.75;2.25;;;;;;;;;;4976065;28;20031;-76
2023/04/28 12:17:42;;;;;;;6.80;2.58;;;;;;;;;;4991259;28;20042;-79
2023/04/28 12:20:11;;;;;;;4.60;2.30;;;;;;;;;;4976406;28;20113;-78
2023/04/28 12:22:49;;;;;;;4.72;2.08;;;;;;;;;;4976389;28;20030;-78
2023/04/28 12:25:20;;;;;;;10.80;2.13;;;;;;;;;;4974827;28;20037;-79
2023/04/28 12:28:01;;;;;;;7.60;2.10;;;;;;;;;;4975750;28;20252;-77
2023/04/28 12:30:29;;;;;;;6.07;2.20;;;;;;;;;;4974604;28;20035;-78
2023/04/28 12:32:55;;;;;;;3.42;1.90;;;;;;;;;;4991237;28;20130;-84
2023/04/28 12:35:24;;;;;;;7.28;2.20;;;;;;;;;;4960795;28;20511;-80
2023/04/28 12:37:51;;;;;;;3.97;1.73;;;;;;;;;;4978915;28;20051;-82
2023/04/28 12:40:17;;;;;;;4.97;2.67;;;;;;;;;;4978399;28;20031;-82
2023/04/28 12:42:43;;;;;;;9.60;2.25;;;;;;;;;;4980139;28;20071;-83
2023/04/28 12:45:10;;;;;;;5.50;2.30;;;;;;;;;;4978222;28;20042;-78
2023/04/28 12:47:37;;;;;;;11.88;4.13;;;;;;;;;;4974228;28;20540;-84
2023/04/28 12:50:04;;;;;;;5.50;2.20;;;;;;;;;;4973766;28;20042;-82
2023/04/28 12:52:33;;;;;;;6.88;2.20;;;;;;;;;;4975681;28;20038;-79
2023/04/28 12:54:59;;;;;;;5.97;2.00;;;;;;;;;;4974576;28;20035;-79
2023/04/28 12:57:26;;;;;;;7.25;2.92;;;;;;;;;;4975662;28;20393;-81
2023/04/28 12:59:55;;;;;;;3.70;2.00;;;;;;;;;;4975721;28;20042;-84
2023/04/28 13:02:22;;;;;;;4.97;2.03;;;;;;;;;;4975797;28;20033;-82
2023/04/28 13:04:48;;;;;;;5.88;2.13;;;;;;;;;;4978207;28;20117;-83
2023/04/28 13:07:14;;;;;;;5.95;2.35;;;;;;;;;;4977069;28;20106;-81
2023/04/28 13:09:42;;;;;;;5.90;2.17;;;;;;;;;;4977166;28;20094;-79
2023/04/28 13:12:10;;;;;;;5.68;2.63;;;;;;;;;;4976119;28;20018;-82
2023/04/28 13:14:36;;;;;;;5.47;2.83;;;;;;;;;;4990317;28;20122;-79
2023/04/28 13:17:05;;;;;;;3.40;2.00;;;;;;;;;;4975135;28;20025;-81
2023/04/28 13:19:33;;;;;;;10.77;2.40;;;;;;;;;;4974698;28;20089;-81
2023/04/28 13:21:59;;;;;;;9.13;2.70;;;;;;;;;;4975019;28;20081;-80
2023/04/28 13:24:25;;;;;;;8.05;2.30;;;;;;;;;;4975385;28;20035;-80
2023/04/28 13:26:53;;;;;;;8.65;2.00;;;;;;;;;;4974831;28;20031;-80
2023/04/28 13:29:19;;;;;;;13.13;2.17;;;;;;;;;;4989286;28;20114;-80
2023/04/28 13:31:45;;;;;;;5.88;2.15;;;;;;;;;;4973210;28;20118;-80
2023/04/28 13:34:14;;;;;;;5.55;2.00;;;;;;;;;;4972935;28;20047;-81
2023/04/28 13:36:42;;;;;;;5.57;2.22;;;;;;;;;;4975391;28;20042;-80
2023/04/28 13:39:13;;;;;;;2.97;1.70;;;;;;;;;;4975065;28;20027;-82
2023/04/28 13:41:39;;;;;;;4.85;1.90;;;;;;;;;;4974282;28;20090;-84
2023/04/28 13:44:05;;;;;;;4.15;1.60;;;;;;;;;;4975571;28;20179;-81
2023/04/28 13:46:31;;;;;;;5.18;2.20;;;;;;;;;;4973356;28;20045;-81
2023/04/28 13:48:58;;;;;;;5.93;2.40;;;;;;;;;;4941425;28;20125;-80
2023/04/28 13:51:24;;;;;;;5.15;2.22;;;;;;;;;;4974693;28;20158;-82
2023/04/28 13:53:50;;;;;;;4.30;2.05;;;;;;;;;;4974358;28;20508;-82
2023/04/28 13:56:16;;;;;;;5.68;2.00;;;;;;;;;;4974141;28;20051;-80
2023/04/28 13:58:42;;;;;;;6.30;1.92;;;;;;;;;;4973909;28;20101;-80
2023/04/28 14:01:08;;;;;;;6.00;2.00;;;;;;;;;;4973151;28;20062;-84
2023/04/28 14:03:37;;;;;;;6.03;2.13;;;;;;;;;;4973736;28;20055;-81
2023/04/28 14:06:05;;;;;;;3.55;1.80;;;;;;;;;;4988940;28;20038;-80
2023/04/28 14:08:31;;;;;;;8.30;1.85;;;;;;;;;;4972744;28;20034;-79
2023/04/28 14:10:57;;;;;;;4.93;1.92;;;;;;;;;;4988729;28;20043;-81
2023/04/28 14:13:24;;;;;;;6.10;1.83;;;;;;;;;;4975898;28;20029;-80
2023/04/28 14:15:52;;;;;;;4.13;2.08;;;;;;;;;;4972901;28;20051;-80
2023/04/28 14:18:18;;;;;;;7.15;1.85;;;;;;;;;;4972723;28;20448;-82
2023/04/28 14:20:47;;;;;;;4.78;1.77;;;;;;;;;;4974060;28;20069;-81
2023/04/28 14:23:14;;;;;;;5.80;2.30;;;;;;;;;;4972367;28;20019;-78
2023/04/28 14:25:40;;;;;;;5.63;2.22;;;;;;;;;;4956438;28;20062;-80
2023/04/28 14:28:06;;;;;;;4.00;1.90;;;;;;;;;;4973774;28;20461;-81
2023/04/28 14:30:32;;;;;;;3.28;1.67;;;;;;;;;;4988440;28;20113;-80
2023/04/28 14:33:01;;;;;;;5.13;2.20;;;;;;;;;;4988546;28;20019;-83
2023/04/28 14:35:30;;;;;;;6.05;2.55;;;;;;;;;;4973251;28;20039;-80
2023/04/28 14:37:56;;;;;;;5.70;2.30;;;;;;;;;;4974475;28;20027;-82
2023/04/28 14:40:22;;;;;;;3.70;2.08;;;;;;;;;;4974647;28;20046;-82
2023/04/28 14:42:48;;;;;;;5.30;2.10;;;;;;;;;;4974804;28;20031;-82
2023/04/28 14:45:15;;;;;;;6.68;2.17;;;;;;;;;;4974482;28;20043;-82
2023/04/28 14:47:41;;;;;;;2.85;1.83;;;;;;;;;;4972316;28;20027;-82
2023/04/28 14:50:08;;;;;;;6.57;2.00;;;;;;;;;;4971694;28;20113;-86